createdAt,value
2022-12-15T00:10:24.341Z,16.70
2022-12-15T01:13:37.606Z,18.13
2022-12-15T01:28:59.371Z,18.77
2022-12-15T01:59:53.223Z,18.57
2022-12-15T02:15:30.629Z,11.43
2022-12-15T02:30:42.522Z,7.57
2022-12-15T02:46:05.682Z,7.53
2022-12-15T03:01:14.835Z,8.10
2022-12-15T03:16:19.169Z,10.57
2022-12-15T03:31:23.637Z,12.47
2022-12-15T03:46:28.198Z,12.80
2022-12-15T04:01:42.084Z,14.43
2022-12-15T04:16:54.425Z,13.20
2022-12-15T04:32:18.897Z,16.73
2022-12-15T04:47:46.164Z,15.80
2022-12-15T05:35:11.301Z,19.97
2022-12-15T05:50:20.165Z,17.93
2022-12-15T07:13:03.247Z,14.40
2022-12-15T12:17:40.379Z,31.03
2022-12-15T12:32:56.522Z,38.13
2022-12-15T12:48:15.136Z,27.17
2022-12-15T13:03:22.077Z,34.60
2022-12-15T13:18:30.081Z,37.43
2022-12-15T13:33:35.669Z,37.87
2022-12-15T13:48:49.337Z,37.50
2022-12-15T14:04:09.253Z,31.40
2022-12-15T14:19:15.751Z,59.03
2022-12-15T14:34:35.184Z,77.43
2022-12-15T14:49:44.322Z,68.87
2022-12-15T15:05:00.421Z,57.07
2022-12-15T15:20:09.956Z,61.63
2022-12-15T15:35:14.452Z,69.03
2022-12-15T15:50:22.541Z,78.40
2022-12-15T16:05:26.883Z,67.90
2022-12-15T16:20:31.737Z,65.90
2022-12-15T16:35:36.646Z,65.10
2022-12-15T16:50:42.749Z,63.17
2022-12-15T17:05:49.694Z,64.00
2022-12-15T17:21:04.250Z,56.40
2022-12-15T17:36:14.247Z,62.23
2022-12-15T17:51:20.070Z,65.20
2022-12-15T18:06:24.238Z,85.73
2022-12-15T18:21:29.291Z,72.87
2022-12-15T18:36:34.175Z,64.73
2022-12-15T18:51:38.597Z,104.03
2022-12-15T19:06:43.538Z,122.03
2022-12-15T19:22:07.126Z,109.97
2022-12-15T19:37:30.542Z,97.07
2022-12-15T19:52:35.042Z,88.60
2022-12-15T20:07:39.652Z,81.40
2022-12-15T20:22:45.574Z,71.40
2022-12-15T20:37:51.153Z,59.87
2022-12-15T20:52:56.527Z,68.83
2022-12-15T21:08:01.692Z,68.57
2022-12-15T21:23:06.703Z,68.90
2022-12-15T21:38:22.821Z,71.00
2022-12-15T21:53:27.867Z,62.17
2022-12-15T22:08:32.642Z,56.50
2022-12-15T22:23:38.406Z,61.10
2022-12-15T22:38:43.465Z,61.10
2022-12-15T22:53:47.962Z,60.20
2022-12-15T23:08:55.813Z,61.47
2022-12-15T23:24:00.969Z,51.60
2022-12-15T23:39:05.988Z,63.50
2022-12-15T23:54:11.044Z,67.00
